sensor_id;sensor_type;location;lat;lon;timestamp;P1;durP1;ratioP1;P2;durP2;ratioP2
5622;SDS011;2833;50.432;10.706;2023-07-13T00:01:52;1.90;;;1.80;;
5622;SDS011;2833;50.432;10.706;2023-07-13T00:04:18;2.20;;;2.00;;
5622;SDS011;2833;50.432;10.706;2023-07-13T00:06:44;2.50;;;2.07;;
5622;SDS011;2833;50.432;10.706;2023-07-13T00:09:10;2.03;;;1.47;;
5622;SDS011;2833;50.432;10.706;2023-07-13T00:11:36;2.10;;;1.93;;
5622;SDS011;2833;50.432;10.706;2023-07-13T00:14:01;1.77;;;1.67;;
5622;SDS011;2833;50.432;10.706;2023-07-13T00:16:28;2.00;;;1.80;;
5622;SDS011;2833;50.432;10.706;2023-07-13T00:18:53;1.97;;;1.63;;
5622;SDS011;2833;50.432;10.706;2023-07-13T00:21:18;1.80;;;1.70;;
5622;SDS011;2833;50.432;10.706;2023-07-13T00:23:44;2.60;;;1.87;;
5622;SDS011;2833;50.432;10.706;2023-07-13T00:26:09;2.63;;;1.73;;
5622;SDS011;2833;50.432;10.706;2023-07-13T00:28:35;2.13;;;1.73;;
5622;SDS011;2833;50.432;10.706;2023-07-13T00:31:00;2.13;;;1.90;;
5622;SDS011;2833;50.432;10.706;2023-07-13T00:33:27;2.73;;;2.00;;
5622;SDS011;2833;50.432;10.706;2023-07-13T00:35:53;2.10;;;1.77;;
5622;SDS011;2833;50.432;10.706;2023-07-13T00:38:18;1.60;;;1.50;;
5622;SDS011;2833;50.432;10.706;2023-07-13T00:40:44;1.77;;;1.67;;
5622;SDS011;2833;50.432;10.706;2023-07-13T00:43:16;2.80;;;1.80;;
5622;SDS011;2833;50.432;10.706;2023-07-13T00:48:07;2.80;;;1.70;;
5622;SDS011;2833;50.432;10.706;2023-07-13T00:50:33;1.90;;;1.80;;
5622;SDS011;2833;50.432;10.706;2023-07-13T00:52:58;1.73;;;1.63;;
5622;SDS011;2833;50.432;10.706;2023-07-13T00:55:23;3.53;;;1.63;;
5622;SDS011;2833;50.432;10.706;2023-07-13T00:57:48;2.50;;;2.23;;
5622;SDS011;2833;50.432;10.706;2023-07-13T01:00:14;2.70;;;1.80;;
5622;SDS011;2833;50.432;10.706;2023-07-13T01:02:40;2.10;;;1.90;;
5622;SDS011;2833;50.432;10.706;2023-07-13T01:05:20;1.80;;;1.70;;
5622;SDS011;2833;50.432;10.706;2023-07-13T01:07:46;2.60;;;1.90;;
5622;SDS011;2833;50.432;10.706;2023-07-13T01:10:13;4.73;;;1.80;;
5622;SDS011;2833;50.432;10.706;2023-07-13T01:12:38;4.20;;;1.80;;
5622;SDS011;2833;50.432;10.706;2023-07-13T01:15:04;2.43;;;2.00;;
5622;SDS011;2833;50.432;10.706;2023-07-13T01:17:29;2.80;;;2.10;;
5622;SDS011;2833;50.432;10.706;2023-07-13T01:19:56;2.90;;;2.00;;
5622;SDS011;2833;50.432;10.706;2023-07-13T01:22:21;1.97;;;1.77;;
5622;SDS011;2833;50.432;10.706;2023-07-13T01:24:50;2.00;;;1.73;;
5622;SDS011;2833;50.432;10.706;2023-07-13T01:27:16;1.90;;;1.80;;
5622;SDS011;2833;50.432;10.706;2023-07-13T01:29:43;2.80;;;1.80;;
5622;SDS011;2833;50.432;10.706;2023-07-13T01:32:12;2.80;;;1.70;;
5622;SDS011;2833;50.432;10.706;2023-07-13T01:34:38;1.80;;;1.70;;
5622;SDS011;2833;50.432;10.706;2023-07-13T01:37:07;2.23;;;2.10;;
5622;SDS011;2833;50.432;10.706;2023-07-13T01:39:32;1.47;;;1.37;;
5622;SDS011;2833;50.432;10.706;2023-07-13T01:41:58;1.83;;;1.63;;
5622;SDS011;2833;50.432;10.706;2023-07-13T01:44:23;2.50;;;1.90;;
5622;SDS011;2833;50.432;10.706;2023-07-13T01:46:48;1.70;;;1.60;;
5622;SDS011;2833;50.432;10.706;2023-07-13T01:49:13;1.83;;;1.70;;
5622;SDS011;2833;50.432;10.706;2023-07-13T01:51:38;2.03;;;1.90;;
5622;SDS011;2833;50.432;10.706;2023-07-13T01:54:04;2.23;;;2.03;;
5622;SDS011;2833;50.432;10.706;2023-07-13T01:56:29;3.03;;;2.10;;
5622;SDS011;2833;50.432;10.706;2023-07-13T01:58:54;1.80;;;1.70;;
5622;SDS011;2833;50.432;10.706;2023-07-13T02:01:20;2.00;;;1.90;;
5622;SDS011;2833;50.432;10.706;2023-07-13T02:03:45;2.20;;;2.00;;
5622;SDS011;2833;50.432;10.706;2023-07-13T02:06:11;3.20;;;2.13;;
5622;SDS011;2833;50.432;10.706;2023-07-13T02:08:37;2.90;;;2.20;;
5622;SDS011;2833;50.432;10.706;2023-07-13T02:11:02;2.83;;;2.27;;
5622;SDS011;2833;50.432;10.706;2023-07-13T02:13:27;3.03;;;1.93;;
5622;SDS011;2833;50.432;10.706;2023-07-13T02:15:53;2.20;;;2.00;;
5622;SDS011;2833;50.432;10.706;2023-07-13T02:18:18;1.73;;;1.63;;
5622;SDS011;2833;50.432;10.706;2023-07-13T02:20:43;1.80;;;1.70;;
5622;SDS011;2833;50.432;10.706;2023-07-13T02:23:08;2.00;;;1.90;;
5622;SDS011;2833;50.432;10.706;2023-07-13T02:25:34;3.67;;;1.90;;
5622;SDS011;2833;50.432;10.706;2023-07-13T02:27:59;2.50;;;2.00;;
5622;SDS011;2833;50.432;10.706;2023-07-13T02:30:24;2.30;;;2.03;;
5622;SDS011;2833;50.432;10.706;2023-07-13T02:32:50;2.20;;;2.10;;
5622;SDS011;2833;50.432;10.706;2023-07-13T02:35:15;2.33;;;2.13;;
5622;SDS011;2833;50.432;10.706;2023-07-13T02:37:40;2.07;;;1.93;;
5622;SDS011;2833;50.432;10.706;2023-07-13T02:40:06;2.00;;;1.90;;
5622;SDS011;2833;50.432;10.706;2023-07-13T02:42:33;4.03;;;2.03;;
5622;SDS011;2833;50.432;10.706;2023-07-13T02:44:58;2.00;;;1.90;;
5622;SDS011;2833;50.432;10.706;2023-07-13T02:47:23;2.03;;;1.83;;
5622;SDS011;2833;50.432;10.706;2023-07-13T02:49:49;2.00;;;1.90;;
5622;SDS011;2833;50.432;10.706;2023-07-13T02:52:14;3.77;;;2.20;;
5622;SDS011;2833;50.432;10.706;2023-07-13T02:54:39;5.53;;;2.17;;
5622;SDS011;2833;50.432;10.706;2023-07-13T02:57:04;2.47;;;1.90;;
5622;SDS011;2833;50.432;10.706;2023-07-13T02:59:30;1.87;;;1.77;;
5622;SDS011;2833;50.432;10.706;2023-07-13T03:01:55;3.03;;;2.33;;
5622;SDS011;2833;50.432;10.706;2023-07-13T03:04:20;1.80;;;1.70;;
5622;SDS011;2833;50.432;10.706;2023-07-13T03:06:45;2.40;;;1.90;;
5622;SDS011;2833;50.432;10.706;2023-07-13T03:09:11;1.90;;;1.80;;
5622;SDS011;2833;50.432;10.706;2023-07-13T03:11:37;2.40;;;2.20;;
5622;SDS011;2833;50.432;10.706;2023-07-13T03:14:03;2.70;;;2.00;;
5622;SDS011;2833;50.432;10.706;2023-07-13T03:16:28;2.60;;;2.20;;
5622;SDS011;2833;50.432;10.706;2023-07-13T03:18:53;2.10;;;2.00;;
5622;SDS011;2833;50.432;10.706;2023-07-13T03:21:18;2.27;;;2.07;;
5622;SDS011;2833;50.432;10.706;2023-07-13T03:23:43;2.80;;;2.23;;
5622;SDS011;2833;50.432;10.706;2023-07-13T03:26:10;2.30;;;2.10;;
5622;SDS011;2833;50.432;10.706;2023-07-13T03:28:36;2.30;;;2.10;;
5622;SDS011;2833;50.432;10.706;2023-07-13T03:31:09;2.87;;;2.07;;
5622;SDS011;2833;50.432;10.706;2023-07-13T03:33:34;2.10;;;1.90;;
5622;SDS011;2833;50.432;10.706;2023-07-13T03:35:59;2.40;;;2.20;;
5622;SDS011;2833;50.432;10.706;2023-07-13T03:38:25;1.83;;;1.73;;
5622;SDS011;2833;50.432;10.706;2023-07-13T03:40:51;2.30;;;2.20;;
5622;SDS011;2833;50.432;10.706;2023-07-13T03:43:16;2.40;;;2.07;;
5622;SDS011;2833;50.432;10.706;2023-07-13T03:45:41;19.80;;;2.60;;
5622;SDS011;2833;50.432;10.706;2023-07-13T03:48:06;2.27;;;2.10;;
5622;SDS011;2833;50.432;10.706;2023-07-13T03:50:32;2.10;;;2.00;;
5622;SDS011;2833;50.432;10.706;2023-07-13T03:52:58;2.77;;;2.17;;
5622;SDS011;2833;50.432;10.706;2023-07-13T03:55:23;2.80;;;2.37;;
5622;SDS011;2833;50.432;10.706;2023-07-13T03:57:53;4.03;;;2.30;;
5622;SDS011;2833;50.432;10.706;2023-07-13T04:00:19;2.00;;;1.90;;
5622;SDS011;2833;50.432;10.706;2023-07-13T04:02:44;3.40;;;2.43;;
5622;SDS011;2833;50.432;10.706;2023-07-13T04:05:11;7.70;;;2.50;;
5622;SDS011;2833;50.432;10.706;2023-07-13T04:07:37;14.33;;;2.20;;
5622;SDS011;2833;50.432;10.706;2023-07-13T04:10:02;3.43;;;2.00;;
5622;SDS011;2833;50.432;10.706;2023-07-13T04:12:28;6.00;;;2.20;;
5622;SDS011;2833;50.432;10.706;2023-07-13T04:14:53;3.10;;;2.20;;
5622;SDS011;2833;50.432;10.706;2023-07-13T04:17:19;2.57;;;2.13;;
5622;SDS011;2833;50.432;10.706;2023-07-13T04:19:44;2.57;;;2.37;;
5622;SDS011;2833;50.432;10.706;2023-07-13T04:22:09;2.00;;;1.90;;
5622;SDS011;2833;50.432;10.706;2023-07-13T04:24:34;2.77;;;1.90;;
5622;SDS011;2833;50.432;10.706;2023-07-13T04:27:00;2.40;;;2.20;;
5622;SDS011;2833;50.432;10.706;2023-07-13T04:29:26;2.13;;;2.03;;
5622;SDS011;2833;50.432;10.706;2023-07-13T04:31:51;1.87;;;1.77;;
5622;SDS011;2833;50.432;10.706;2023-07-13T04:34:16;3.23;;;2.23;;
5622;SDS011;2833;50.432;10.706;2023-07-13T04:36:42;2.57;;;2.20;;
5622;SDS011;2833;50.432;10.706;2023-07-13T04:39:07;2.83;;;2.20;;
5622;SDS011;2833;50.432;10.706;2023-07-13T04:41:32;2.80;;;2.40;;
5622;SDS011;2833;50.432;10.706;2023-07-13T04:43:57;2.90;;;2.40;;
5622;SDS011;2833;50.432;10.706;2023-07-13T04:46:23;3.10;;;2.23;;
5622;SDS011;2833;50.432;10.706;2023-07-13T04:48:48;4.50;;;2.00;;
5622;SDS011;2833;50.432;10.706;2023-07-13T04:51:14;3.17;;;2.20;;
5622;SDS011;2833;50.432;10.706;2023-07-13T04:53:39;2.60;;;2.40;;
5622;SDS011;2833;50.432;10.706;2023-07-13T04:56:04;2.40;;;2.20;;
5622;SDS011;2833;50.432;10.706;2023-07-13T04:58:30;8.73;;;2.53;;
5622;SDS011;2833;50.432;10.706;2023-07-13T05:01:01;2.63;;;2.43;;
5622;SDS011;2833;50.432;10.706;2023-07-13T05:03:28;2.60;;;2.33;;
5622;SDS011;2833;50.432;10.706;2023-07-13T05:06:03;2.77;;;2.30;;
5622;SDS011;2833;50.432;10.706;2023-07-13T05:08:28;2.53;;;2.33;;
5622;SDS011;2833;50.432;10.706;2023-07-13T05:10:54;2.13;;;2.03;;
5622;SDS011;2833;50.432;10.706;2023-07-13T05:13:19;2.93;;;2.27;;
5622;SDS011;2833;50.432;10.706;2023-07-13T05:15:45;2.30;;;2.00;;
5622;SDS011;2833;50.432;10.706;2023-07-13T05:18:10;2.47;;;2.27;;
5622;SDS011;2833;50.432;10.706;2023-07-13T05:20:35;2.43;;;2.23;;
5622;SDS011;2833;50.432;10.706;2023-07-13T05:23:00;2.70;;;2.47;;
5622;SDS011;2833;50.432;10.706;2023-07-13T05:25:26;2.40;;;2.20;;
5622;SDS011;2833;50.432;10.706;2023-07-13T05:27:51;2.13;;;2.00;;
5622;SDS011;2833;50.432;10.706;2023-07-13T05:30:16;5.43;;;2.47;;
5622;SDS011;2833;50.432;10.706;2023-07-13T05:32:41;2.77;;;2.57;;
5622;SDS011;2833;50.432;10.706;2023-07-13T05:35:07;2.27;;;1.90;;
5622;SDS011;2833;50.432;10.706;2023-07-13T05:37:32;2.03;;;1.93;;
5622;SDS011;2833;50.432;10.706;2023-07-13T05:39:57;2.37;;;2.17;;
5622;SDS011;2833;50.432;10.706;2023-07-13T05:42:23;2.50;;;2.30;;
5622;SDS011;2833;50.432;10.706;2023-07-13T05:44:48;2.00;;;1.80;;
5622;SDS011;2833;50.432;10.706;2023-07-13T05:47:13;2.70;;;2.33;;
5622;SDS011;2833;50.432;10.706;2023-07-13T05:49:39;2.30;;;2.10;;
5622;SDS011;2833;50.432;10.706;2023-07-13T05:52:05;2.03;;;1.83;;
5622;SDS011;2833;50.432;10.706;2023-07-13T05:54:30;2.07;;;1.90;;
5622;SDS011;2833;50.432;10.706;2023-07-13T05:56:55;2.50;;;1.90;;
5622;SDS011;2833;50.432;10.706;2023-07-13T05:59:20;2.43;;;2.23;;
5622;SDS011;2833;50.432;10.706;2023-07-13T06:01:46;2.20;;;1.83;;
5622;SDS011;2833;50.432;10.706;2023-07-13T06:04:11;3.47;;;2.50;;
5622;SDS011;2833;50.432;10.706;2023-07-13T06:06:36;4.20;;;2.40;;
5622;SDS011;2833;50.432;10.706;2023-07-13T06:09:01;1.87;;;1.70;;
5622;SDS011;2833;50.432;10.706;2023-07-13T06:11:27;3.00;;;2.10;;
5622;SDS011;2833;50.432;10.706;2023-07-13T06:13:52;3.67;;;2.47;;
5622;SDS011;2833;50.432;10.706;2023-07-13T06:16:18;2.53;;;2.20;;
5622;SDS011;2833;50.432;10.706;2023-07-13T06:18:43;2.93;;;1.97;;
5622;SDS011;2833;50.432;10.706;2023-07-13T06:21:15;3.17;;;2.00;;
5622;SDS011;2833;50.432;10.706;2023-07-13T06:23:41;4.30;;;2.70;;
5622;SDS011;2833;50.432;10.706;2023-07-13T06:26:06;2.67;;;2.00;;
5622;SDS011;2833;50.432;10.706;2023-07-13T06:28:32;2.83;;;2.10;;
5622;SDS011;2833;50.432;10.706;2023-07-13T06:30:58;3.17;;;2.33;;
5622;SDS011;2833;50.432;10.706;2023-07-13T06:33:23;1.80;;;1.70;;
5622;SDS011;2833;50.432;10.706;2023-07-13T06:35:48;2.20;;;2.10;;
5622;SDS011;2833;50.432;10.706;2023-07-13T06:38:13;2.23;;;2.03;;
5622;SDS011;2833;50.432;10.706;2023-07-13T06:40:39;5.47;;;2.67;;
5622;SDS011;2833;50.432;10.706;2023-07-13T06:43:04;3.03;;;2.53;;
5622;SDS011;2833;50.432;10.706;2023-07-13T06:45:29;2.63;;;2.43;;
5622;SDS011;2833;50.432;10.706;2023-07-13T06:47:54;3.90;;;2.40;;
5622;SDS011;2833;50.432;10.706;2023-07-13T06:50:20;2.43;;;2.30;;
5622;SDS011;2833;50.432;10.706;2023-07-13T06:52:45;2.87;;;2.57;;
5622;SDS011;2833;50.432;10.706;2023-07-13T06:55:10;3.57;;;2.13;;
5622;SDS011;2833;50.432;10.706;2023-07-13T06:57:35;3.73;;;2.50;;
5622;SDS011;2833;50.432;10.706;2023-07-13T07:00:00;2.83;;;2.63;;
5622;SDS011;2833;50.432;10.706;2023-07-13T07:02:26;2.87;;;2.27;;
5622;SDS011;2833;50.432;10.706;2023-07-13T07:04:51;5.73;;;2.00;;
5622;SDS011;2833;50.432;10.706;2023-07-13T07:07:16;3.13;;;2.33;;
5622;SDS011;2833;50.432;10.706;2023-07-13T07:09:41;2.00;;;1.90;;
5622;SDS011;2833;50.432;10.706;2023-07-13T07:12:07;2.90;;;2.43;;
5622;SDS011;2833;50.432;10.706;2023-07-13T07:14:32;2.50;;;2.20;;
5622;SDS011;2833;50.432;10.706;2023-07-13T07:16:59;2.90;;;2.03;;
5622;SDS011;2833;50.432;10.706;2023-07-13T07:19:24;2.13;;;2.00;;
5622;SDS011;2833;50.432;10.706;2023-07-13T07:21:49;1.80;;;1.70;;
5622;SDS011;2833;50.432;10.706;2023-07-13T07:24:14;3.57;;;2.17;;
5622;SDS011;2833;50.432;10.706;2023-07-13T07:26:40;1.80;;;1.70;;
5622;SDS011;2833;50.432;10.706;2023-07-13T07:29:06;2.80;;;1.90;;
5622;SDS011;2833;50.432;10.706;2023-07-13T07:31:31;2.70;;;2.00;;
5622;SDS011;2833;50.432;10.706;2023-07-13T07:33:56;2.40;;;1.80;;
5622;SDS011;2833;50.432;10.706;2023-07-13T07:36:21;2.20;;;1.73;;
5622;SDS011;2833;50.432;10.706;2023-07-13T07:38:46;1.90;;;1.70;;
5622;SDS011;2833;50.432;10.706;2023-07-13T07:41:12;2.53;;;1.70;;
5622;SDS011;2833;50.432;10.706;2023-07-13T07:43:37;2.43;;;2.00;;
5622;SDS011;2833;50.432;10.706;2023-07-13T07:46:03;1.70;;;1.60;;
5622;SDS011;2833;50.432;10.706;2023-07-13T07:48:28;2.63;;;2.03;;
5622;SDS011;2833;50.432;10.706;2023-07-13T07:50:53;1.50;;;1.40;;
5622;SDS011;2833;50.432;10.706;2023-07-13T07:53:18;1.40;;;1.30;;
5622;SDS011;2833;50.432;10.706;2023-07-13T07:55:44;1.80;;;1.50;;
5622;SDS011;2833;50.432;10.706;2023-07-13T07:58:10;1.70;;;1.60;;
5622;SDS011;2833;50.432;10.706;2023-07-13T08:00:35;1.93;;;1.30;;
5622;SDS011;2833;50.432;10.706;2023-07-13T08:03:00;1.30;;;1.20;;
5622;SDS011;2833;50.432;10.706;2023-07-13T08:05:26;3.23;;;1.70;;
5622;SDS011;2833;50.432;10.706;2023-07-13T08:07:51;1.53;;;1.43;;
5622;SDS011;2833;50.432;10.706;2023-07-13T08:10:16;3.83;;;1.40;;
5622;SDS011;2833;50.432;10.706;2023-07-13T08:12:42;1.67;;;1.57;;
5622;SDS011;2833;50.432;10.706;2023-07-13T08:15:09;1.10;;;1.10;;
5622;SDS011;2833;50.432;10.706;2023-07-13T08:17:35;1.37;;;1.20;;
5622;SDS011;2833;50.432;10.706;2023-07-13T08:20:00;1.20;;;1.10;;
5622;SDS011;2833;50.432;10.706;2023-07-13T08:22:26;1.53;;;1.03;;
5622;SDS011;2833;50.432;10.706;2023-07-13T08:24:51;2.53;;;1.10;;
5622;SDS011;2833;50.432;10.706;2023-07-13T08:27:21;1.30;;;1.20;;
5622;SDS011;2833;50.432;10.706;2023-07-13T08:29:47;1.20;;;1.10;;
5622;SDS011;2833;50.432;10.706;2023-07-13T08:32:12;1.27;;;1.10;;
5622;SDS011;2833;50.432;10.706;2023-07-13T08:34:37;1.30;;;1.20;;
5622;SDS011;2833;50.432;10.706;2023-07-13T08:37:02;1.30;;;1.20;;
5622;SDS011;2833;50.432;10.706;2023-07-13T08:39:28;1.53;;;1.40;;
5622;SDS011;2833;50.432;10.706;2023-07-13T08:41:56;1.30;;;1.10;;
5622;SDS011;2833;50.432;10.706;2023-07-13T08:44:27;1.20;;;1.10;;
5622;SDS011;2833;50.432;10.706;2023-07-13T08:46:55;1.03;;;0.93;;
5622;SDS011;2833;50.432;10.706;2023-07-13T08:49:22;3.90;;;1.20;;
5622;SDS011;2833;50.432;10.706;2023-07-13T08:54:21;0.90;;;0.90;;
5622;SDS011;2833;50.432;10.706;2023-07-13T08:56:47;1.10;;;0.97;;
5622;SDS011;2833;50.432;10.706;2023-07-13T08:59:15;1.00;;;0.90;;
5622;SDS011;2833;50.432;10.706;2023-07-13T09:04:18;0.80;;;0.80;;
5622;SDS011;2833;50.432;10.706;2023-07-13T09:09:32;0.90;;;0.90;;
5622;SDS011;2833;50.432;10.706;2023-07-13T09:16:53;1.13;;;0.93;;
5622;SDS011;2833;50.432;10.706;2023-07-13T09:19:28;1.20;;;1.10;;
5622;SDS011;2833;50.432;10.706;2023-07-13T09:21:53;1.10;;;1.00;;
5622;SDS011;2833;50.432;10.706;2023-07-13T09:24:37;1.20;;;1.03;;
5622;SDS011;2833;50.432;10.706;2023-07-13T09:27:13;1.30;;;0.80;;
5622;SDS011;2833;50.432;10.706;2023-07-13T09:29:42;1.23;;;1.07;;
5622;SDS011;2833;50.432;10.706;2023-07-13T09:32:10;1.20;;;0.80;;
5622;SDS011;2833;50.432;10.706;2023-07-13T09:34:39;2.03;;;0.90;;
5622;SDS011;2833;50.432;10.706;2023-07-13T09:37:04;1.53;;;1.00;;
5622;SDS011;2833;50.432;10.706;2023-07-13T09:39:31;1.30;;;0.90;;
5622;SDS011;2833;50.432;10.706;2023-07-13T09:44:30;0.80;;;0.70;;
5622;SDS011;2833;50.432;10.706;2023-07-13T09:46:56;1.87;;;0.97;;
5622;SDS011;2833;50.432;10.706;2023-07-13T09:49:28;1.10;;;0.80;;
5622;SDS011;2833;50.432;10.706;2023-07-13T09:52:01;3.77;;;1.10;;
5622;SDS011;2833;50.432;10.706;2023-07-13T09:54:27;1.03;;;0.93;;
5622;SDS011;2833;50.432;10.706;2023-07-13T09:56:56;2.73;;;1.03;;
5622;SDS011;2833;50.432;10.706;2023-07-13T09:59:23;1.30;;;1.10;;
5622;SDS011;2833;50.432;10.706;2023-07-13T10:01:49;0.90;;;0.90;;
5622;SDS011;2833;50.432;10.706;2023-07-13T10:04:16;1.07;;;0.90;;
5622;SDS011;2833;50.432;10.706;2023-07-13T10:06:43;1.20;;;1.10;;
5622;SDS011;2833;50.432;10.706;2023-07-13T10:09:09;0.90;;;0.90;;
5622;SDS011;2833;50.432;10.706;2023-07-13T10:11:36;1.00;;;0.90;;
5622;SDS011;2833;50.432;10.706;2023-07-13T10:14:15;1.00;;;0.90;;
5622;SDS011;2833;50.432;10.706;2023-07-13T10:16:42;1.20;;;1.10;;
5622;SDS011;2833;50.432;10.706;2023-07-13T10:21:47;1.30;;;0.97;;
5622;SDS011;2833;50.432;10.706;2023-07-13T10:24:15;0.90;;;0.90;;
5622;SDS011;2833;50.432;10.706;2023-07-13T10:26:50;1.30;;;1.10;;
5622;SDS011;2833;50.432;10.706;2023-07-13T10:29:17;3.57;;;1.30;;
5622;SDS011;2833;50.432;10.706;2023-07-13T10:31:44;1.30;;;1.20;;
5622;SDS011;2833;50.432;10.706;2023-07-13T10:34:10;1.37;;;1.27;;
5622;SDS011;2833;50.432;10.706;2023-07-13T10:36:43;1.30;;;1.10;;
5622;SDS011;2833;50.432;10.706;2023-07-13T10:39:13;2.70;;;1.10;;
5622;SDS011;2833;50.432;10.706;2023-07-13T10:41:39;1.10;;;1.00;;
5622;SDS011;2833;50.432;10.706;2023-07-13T10:44:09;2.67;;;1.13;;
5622;SDS011;2833;50.432;10.706;2023-07-13T10:46:37;1.00;;;0.90;;
5622;SDS011;2833;50.432;10.706;2023-07-13T10:49:03;1.10;;;1.00;;
5622;SDS011;2833;50.432;10.706;2023-07-13T10:51:29;1.10;;;1.00;;
5622;SDS011;2833;50.432;10.706;2023-07-13T10:56:40;1.30;;;1.00;;
5622;SDS011;2833;50.432;10.706;2023-07-13T11:01:40;1.00;;;1.00;;
5622;SDS011;2833;50.432;10.706;2023-07-13T11:04:11;0.90;;;0.90;;
5622;SDS011;2833;50.432;10.706;2023-07-13T11:06:37;1.10;;;1.00;;
5622;SDS011;2833;50.432;10.706;2023-07-13T11:09:30;1.00;;;1.00;;
5622;SDS011;2833;50.432;10.706;2023-07-13T11:11:58;1.47;;;1.10;;
5622;SDS011;2833;50.432;10.706;2023-07-13T11:14:37;1.17;;;1.03;;
5622;SDS011;2833;50.432;10.706;2023-07-13T11:22:48;1.07;;;0.97;;
5622;SDS011;2833;50.432;10.706;2023-07-13T11:27:43;2.03;;;1.20;;
5622;SDS011;2833;50.432;10.706;2023-07-13T11:32:50;2.03;;;1.10;;
5622;SDS011;2833;50.432;10.706;2023-07-13T11:35:22;1.10;;;1.10;;
5622;SDS011;2833;50.432;10.706;2023-07-13T11:37:49;1.10;;;1.00;;
5622;SDS011;2833;50.432;10.706;2023-07-13T11:40:14;1.07;;;0.90;;
5622;SDS011;2833;50.432;10.706;2023-07-13T11:42:40;0.90;;;0.90;;
5622;SDS011;2833;50.432;10.706;2023-07-13T11:45:12;1.57;;;1.30;;
5622;SDS011;2833;50.432;10.706;2023-07-13T11:47:43;1.30;;;1.17;;
5622;SDS011;2833;50.432;10.706;2023-07-13T11:50:16;1.63;;;1.10;;
5622;SDS011;2833;50.432;10.706;2023-07-13T11:52:42;1.43;;;1.00;;
5622;SDS011;2833;50.432;10.706;2023-07-13T11:55:18;3.00;;;1.50;;
5622;SDS011;2833;50.432;10.706;2023-07-13T11:57:51;4.20;;;1.23;;
5622;SDS011;2833;50.432;10.706;2023-07-13T12:00:18;0.90;;;0.90;;
5622;SDS011;2833;50.432;10.706;2023-07-13T12:02:45;2.03;;;1.40;;
5622;SDS011;2833;50.432;10.706;2023-07-13T12:05:11;1.10;;;1.00;;
5622;SDS011;2833;50.432;10.706;2023-07-13T12:07:38;2.20;;;1.10;;
5622;SDS011;2833;50.432;10.706;2023-07-13T12:10:13;1.67;;;1.10;;
5622;SDS011;2833;50.432;10.706;2023-07-13T12:12:46;1.10;;;1.00;;
5622;SDS011;2833;50.432;10.706;2023-07-13T12:15:12;1.93;;;1.00;;
5622;SDS011;2833;50.432;10.706;2023-07-13T12:17:37;1.20;;;1.10;;
5622;SDS011;2833;50.432;10.706;2023-07-13T12:20:04;9.93;;;1.10;;
5622;SDS011;2833;50.432;10.706;2023-07-13T12:22:36;1.10;;;1.00;;
5622;SDS011;2833;50.432;10.706;2023-07-13T12:25:02;1.20;;;1.10;;
5622;SDS011;2833;50.432;10.706;2023-07-13T12:27:27;1.10;;;1.00;;
5622;SDS011;2833;50.432;10.706;2023-07-13T12:30:04;1.10;;;1.00;;
5622;SDS011;2833;50.432;10.706;2023-07-13T12:32:30;2.00;;;1.00;;
5622;SDS011;2833;50.432;10.706;2023-07-13T12:34:57;1.10;;;1.00;;
5622;SDS011;2833;50.432;10.706;2023-07-13T12:37:28;0.97;;;0.97;;
5622;SDS011;2833;50.432;10.706;2023-07-13T12:39:55;1.90;;;1.30;;
5622;SDS011;2833;50.432;10.706;2023-07-13T12:42:24;2.00;;;1.00;;
5622;SDS011;2833;50.432;10.706;2023-07-13T12:45:00;1.30;;;1.17;;
5622;SDS011;2833;50.432;10.706;2023-07-13T12:47:25;1.37;;;1.10;;
5622;SDS011;2833;50.432;10.706;2023-07-13T12:49:56;2.50;;;1.70;;
5622;SDS011;2833;50.432;10.706;2023-07-13T12:52:32;1.23;;;1.10;;
5622;SDS011;2833;50.432;10.706;2023-07-13T12:57:29;1.07;;;0.97;;
5622;SDS011;2833;50.432;10.706;2023-07-13T12:59:54;3.13;;;1.50;;
5622;SDS011;2833;50.432;10.706;2023-07-13T13:02:29;1.47;;;1.10;;
5622;SDS011;2833;50.432;10.706;2023-07-13T13:04:56;1.23;;;1.00;;
5622;SDS011;2833;50.432;10.706;2023-07-13T13:07:23;1.30;;;1.20;;
5622;SDS011;2833;50.432;10.706;2023-07-13T13:09:48;1.47;;;1.10;;
5622;SDS011;2833;50.432;10.706;2023-07-13T13:12:14;1.40;;;1.30;;
5622;SDS011;2833;50.432;10.706;2023-07-13T13:14:40;2.43;;;1.10;;
5622;SDS011;2833;50.432;10.706;2023-07-13T13:17:08;1.83;;;1.40;;
5622;SDS011;2833;50.432;10.706;2023-07-13T13:19:36;1.20;;;1.10;;
5622;SDS011;2833;50.432;10.706;2023-07-13T13:22:01;1.47;;;1.37;;
5622;SDS011;2833;50.432;10.706;2023-07-13T13:24:27;1.83;;;1.30;;
5622;SDS011;2833;50.432;10.706;2023-07-13T13:26:53;1.30;;;1.20;;
5622;SDS011;2833;50.432;10.706;2023-07-13T13:29:19;1.27;;;1.17;;
5622;SDS011;2833;50.432;10.706;2023-07-13T13:31:45;2.30;;;1.60;;
5622;SDS011;2833;50.432;10.706;2023-07-13T13:34:12;2.17;;;1.63;;
5622;SDS011;2833;50.432;10.706;2023-07-13T13:36:38;1.43;;;1.30;;
5622;SDS011;2833;50.432;10.706;2023-07-13T13:39:37;2.40;;;1.30;;
5622;SDS011;2833;50.432;10.706;2023-07-13T13:41:55;2.90;;;1.43;;
5622;SDS011;2833;50.432;10.706;2023-07-13T13:44:21;1.10;;;1.10;;
5622;SDS011;2833;50.432;10.706;2023-07-13T13:46:54;2.10;;;1.50;;
5622;SDS011;2833;50.432;10.706;2023-07-13T13:49:23;1.40;;;1.30;;
5622;SDS011;2833;50.432;10.706;2023-07-13T13:51:49;3.17;;;1.60;;
5622;SDS011;2833;50.432;10.706;2023-07-13T13:54:15;1.33;;;1.10;;
5622;SDS011;2833;50.432;10.706;2023-07-13T13:56:41;2.07;;;1.40;;
5622;SDS011;2833;50.432;10.706;2023-07-13T13:59:07;1.43;;;1.10;;
5622;SDS011;2833;50.432;10.706;2023-07-13T14:01:33;2.00;;;1.20;;
5622;SDS011;2833;50.432;10.706;2023-07-13T14:03:59;1.63;;;1.20;;
5622;SDS011;2833;50.432;10.706;2023-07-13T14:06:24;0.90;;;0.90;;
5622;SDS011;2833;50.432;10.706;2023-07-13T14:08:50;1.60;;;1.40;;
5622;SDS011;2833;50.432;10.706;2023-07-13T14:11:16;1.80;;;1.40;;
5622;SDS011;2833;50.432;10.706;2023-07-13T14:13:42;2.23;;;1.30;;
5622;SDS011;2833;50.432;10.706;2023-07-13T14:16:12;2.13;;;1.27;;
5622;SDS011;2833;50.432;10.706;2023-07-13T14:18:38;2.40;;;1.47;;
5622;SDS011;2833;50.432;10.706;2023-07-13T14:21:03;2.90;;;1.40;;
5622;SDS011;2833;50.432;10.706;2023-07-13T14:23:28;2.00;;;1.33;;
5622;SDS011;2833;50.432;10.706;2023-07-13T14:25:53;1.40;;;1.30;;
5622;SDS011;2833;50.432;10.706;2023-07-13T14:28:25;1.60;;;1.50;;
5622;SDS011;2833;50.432;10.706;2023-07-13T14:30:51;4.30;;;1.83;;
5622;SDS011;2833;50.432;10.706;2023-07-13T14:33:16;1.77;;;1.40;;
5622;SDS011;2833;50.432;10.706;2023-07-13T14:35:41;4.27;;;1.73;;
5622;SDS011;2833;50.432;10.706;2023-07-13T14:38:17;1.70;;;1.50;;
5622;SDS011;2833;50.432;10.706;2023-07-13T14:40:43;2.20;;;1.33;;
5622;SDS011;2833;50.432;10.706;2023-07-13T14:43:12;1.53;;;1.40;;
5622;SDS011;2833;50.432;10.706;2023-07-13T14:45:39;2.17;;;1.60;;
5622;SDS011;2833;50.432;10.706;2023-07-13T14:48:09;2.23;;;1.87;;
5622;SDS011;2833;50.432;10.706;2023-07-13T14:50:37;1.93;;;1.57;;
5622;SDS011;2833;50.432;10.706;2023-07-13T14:53:04;3.80;;;1.80;;
5622;SDS011;2833;50.432;10.706;2023-07-13T14:55:29;2.40;;;1.50;;
5622;SDS011;2833;50.432;10.706;2023-07-13T14:57:54;1.33;;;1.23;;
5622;SDS011;2833;50.432;10.706;2023-07-13T15:00:25;1.70;;;1.37;;
5622;SDS011;2833;50.432;10.706;2023-07-13T15:02:57;1.57;;;1.47;;
5622;SDS011;2833;50.432;10.706;2023-07-13T15:05:23;2.80;;;1.87;;
5622;SDS011;2833;50.432;10.706;2023-07-13T15:07:49;3.30;;;1.63;;
5622;SDS011;2833;50.432;10.706;2023-07-13T15:10:16;1.83;;;1.73;;
5622;SDS011;2833;50.432;10.706;2023-07-13T15:12:42;1.83;;;1.63;;
5622;SDS011;2833;50.432;10.706;2023-07-13T15:15:07;2.00;;;1.87;;
5622;SDS011;2833;50.432;10.706;2023-07-13T15:17:42;2.40;;;1.70;;
5622;SDS011;2833;50.432;10.706;2023-07-13T15:20:26;1.50;;;1.40;;
5622;SDS011;2833;50.432;10.706;2023-07-13T15:22:53;1.80;;;1.47;;
5622;SDS011;2833;50.432;10.706;2023-07-13T15:25:19;1.60;;;1.50;;
5622;SDS011;2833;50.432;10.706;2023-07-13T15:27:45;1.60;;;1.50;;
5622;SDS011;2833;50.432;10.706;2023-07-13T15:30:10;1.67;;;1.30;;
5622;SDS011;2833;50.432;10.706;2023-07-13T15:32:36;1.40;;;1.30;;
5622;SDS011;2833;50.432;10.706;2023-07-13T15:35:01;2.03;;;1.40;;
5622;SDS011;2833;50.432;10.706;2023-07-13T15:37:26;1.40;;;1.30;;